• Join FlightAware (Why Join?)
  • Login
  • US Flag 
04:13AM EDT


 

Airport Tracker/Info


-or-


 

Live Flight TrackerFlight Track Log ✈ JBU185 ✈ 04-Jul-2013 ✈ KROC - KJFK

Flight Track Log - Related Links

Times and Time Zones

All times are in EDT time to prevent confusion due to time zone crossing. See the JBU185 flight status page for this flight to view local times or setup timezone preferences in your user account.

Time Position Orientation Groundspeed Altitude Reporting Facility
EDT Latitude Longitude Course Direction KTS MPH feet Rate Location/Type
06:09AM 40.7509 -73.9430 129° Southeast  Level Estimated
06:10AM 40.7490 -73.9402 132° Southeast  Level Estimated
06:11AM 40.7471 -73.9374 132° Southeast  Level Estimated
06:12AM 40.7452 -73.9345 132° Southeast  Level Estimated
06:13AM 40.7432 -73.9317 132° Southeast  Level Estimated
06:14AM 40.7413 -73.9288 132° Southeast  Level Estimated
06:15AM 40.7394 -73.9260 132° Southeast  Level Estimated
06:16AM 40.7375 -73.9232 132° Southeast  Level Estimated
06:17AM 40.7356 -73.9203 132° Southeast  Level Estimated
06:18AM 40.7336 -73.9175 132° Southeast  Level Estimated
06:19AM 40.7317 -73.9146 132° Southeast  Level Estimated
06:20AM 40.7298 -73.9118 132° Southeast  Level Estimated
06:21AM 40.7279 -73.9090 132° Southeast  Level Estimated
06:22AM 40.7260 -73.9061 132° Southeast  Level Estimated
06:23AM 40.7240 -73.9033 132° Southeast  Level Estimated
06:24AM 40.7221 -73.9004 132° Southeast  Level Estimated
06:25AM 40.7202 -73.8976 132° Southeast  Level Estimated
06:26AM 40.7183 -73.8948 132° Southeast  Level Estimated
06:27AM 40.7164 -73.8919 132° Southeast  Level Estimated
06:28AM 40.7144 -73.8891 132° Southeast  Level Estimated
06:29AM 40.7125 -73.8862 132° Southeast  Level Estimated
06:30AM 40.7106 -73.8834 132° Southeast  Level Estimated
06:31AM 40.7087 -73.8806 132° Southeast  Level Estimated
06:32AM 40.7068 -73.8777 132° Southeast  Level Estimated
06:33AM 40.7048 -73.8749 132° Southeast  Level Estimated
06:34AM 40.7029 -73.8720 132° Southeast  Level Estimated
06:35AM 40.7010 -73.8692 132° Southeast  Level Estimated
06:36AM 40.6991 -73.8664 132° Southeast  Level Estimated
06:37AM 40.6972 -73.8635 132° Southeast  Level Estimated
06:38AM 40.6952 -73.8607 132° Southeast  Level Estimated
06:39AM 40.6933 -73.8578 132° Southeast  Level Estimated
06:40AM 40.6914 -73.8550 132° Southeast  Level Estimated
06:41AM 40.6895 -73.8522 132° Southeast  Level Estimated
06:42AM 40.6876 -73.8493 132° Southeast  Level Estimated
06:43AM 40.6856 -73.8465 132° Southeast  Level Estimated
06:44AM 40.6837 -73.8437 132° Southeast  Level Estimated
06:45AM 40.6818 -73.8408 132° Southeast  Level Estimated
06:46AM 40.6799 -73.8380 132° Southeast  Level Estimated
06:47AM 40.6780 -73.8352 132° Southeast  Level Estimated
06:48AM 40.6760 -73.8323 132° Southeast  Level Estimated
06:49AM 40.6741 -73.8295 132° Southeast  Level Estimated
06:50AM 40.6722 -73.8267 132° Southeast  Level Estimated
06:51AM 40.6703 -73.8238 132° Southeast  Level Estimated
06:52AM 40.6684 -73.8210 132° Southeast  Level Estimated
06:53AM 40.6664 -73.8182 132° Southeast  Level Estimated
06:54AM 40.6645 -73.8154 132° Southeast  Level Estimated
06:55AM 40.6626 -73.8125 132° Southeast  Level Estimated
06:56AM 40.6607 -73.8097 132° Southeast  Level Estimated
06:57AM 40.6587 -73.8069 132° Southeast  Level Estimated
06:58AM 40.6568 -73.8040 132° Southeast  Level Estimated
06:59AM 40.6549 -73.8012 132° Southeast  Level Estimated
07:00AM 40.6530 -73.7984 132° Southeast  Level Estimated
07:01AM 40.6511 -73.7955 132° Southeast  Level Estimated
07:02AM 40.6491 -73.7927 132° Southeast  Level Estimated
07:03AM 40.6472 -73.7899 132° Southeast  Level Estimated
07:04AM 40.6453 -73.7870 132° Southeast  Level Estimated
07:05AM 40.6433 -73.7842 132° Southeast  Level Estimated
07:06AM 40.6414 -73.7814 132° Southeast  Level Estimated
07:07AM 40.6398 -73.7789 132° Southeast  Level Estimated
07:08AM 40.6398 -73.7789 72° East  Level Estimated
07:09AM 40.6398 -73.7789 72° East  Level Estimated
07:10AM 40.6398 -73.7789 72° East  Level Estimated
07:11AM 40.6398 -73.7789 72° East  Level Estimated
07:12AM 40.6398 -73.7789 72° East  Level Estimated
07:13AM 40.6398 -73.7789 72° East  Level Estimated
07:14AM 40.6398 -73.7789 72° East  Level Estimated
07:15AM 40.6398 -73.7789 72° East  Level Estimated
07:16AM 40.6398 -73.7789 72° East  Level Estimated
07:17AM 40.6398 -73.7789 72° East  Level Estimated
07:18AM 40.6398 -73.7789 72° East  Level Estimated
07:19AM 40.6398 -73.7789 72° East  Level Estimated
07:20AM 40.6398 -73.7789 72° East  Level Estimated
07:21AM 40.6398 -73.7789 72° East  Level Estimated
07:22AM 40.6398 -73.7789 72° East  Level Estimated
07:23AM 40.6398 -73.7789 72° East  Level Estimated
07:24AM 40.6398 -73.7789 72° East  Level Estimated